createdAt,value
2016-12-09T00:03:17.747Z,7.82
2016-12-09T00:08:14.414Z,7.88
2016-12-09T00:13:10.842Z,7.91
2016-12-09T00:18:09.425Z,8.05
2016-12-09T00:23:07.149Z,8.09
2016-12-09T00:28:03.829Z,8.13
2016-12-09T00:33:00.595Z,8.10
2016-12-09T00:37:57.503Z,8.13
2016-12-09T00:42:54.000Z,8.24
2016-12-09T00:47:52.790Z,8.26
2016-12-09T00:52:49.023Z,8.19
2016-12-09T00:57:46.198Z,8.10
2016-12-09T01:02:43.123Z,8.06
2016-12-09T01:07:40.162Z,8.08
2016-12-09T01:12:36.674Z,7.98
2016-12-09T01:17:33.681Z,8.00
2016-12-09T01:22:30.413Z,7.98
2016-12-09T01:27:26.652Z,7.91
2016-12-09T01:32:24.409Z,8.13
2016-12-09T01:37:21.042Z,8.09
2016-12-09T01:42:17.355Z,8.09
2016-12-09T01:47:13.798Z,8.12
2016-12-09T01:52:10.411Z,8.20
2016-12-09T01:57:07.166Z,8.24
2016-12-09T02:02:06.267Z,8.33
2016-12-09T02:07:02.339Z,8.31
2016-12-09T02:11:59.125Z,8.37
2016-12-09T02:16:55.318Z,8.38
2016-12-09T02:21:52.557Z,8.46
2016-12-09T02:26:49.356Z,8.36
2016-12-09T02:31:46.158Z,8.45
2016-12-09T02:36:42.471Z,8.49
2016-12-09T02:41:39.876Z,8.51
2016-12-09T02:46:36.396Z,8.48
2016-12-09T02:51:33.064Z,8.53
2016-12-09T02:56:30.174Z,8.51
2016-12-09T03:01:27.009Z,8.36
2016-12-09T03:06:25.940Z,8.44
2016-12-09T03:11:22.815Z,8.38
2016-12-09T03:16:21.112Z,8.33
2016-12-09T03:21:17.728Z,8.33
2016-12-09T03:26:15.450Z,8.28
2016-12-09T03:31:12.094Z,8.27
2016-12-09T03:36:08.890Z,8.18
2016-12-09T03:41:05.784Z,8.20
2016-12-09T03:46:02.592Z,8.16
2016-12-09T03:51:01.248Z,8.16
2016-12-09T03:55:57.341Z,8.10
2016-12-09T04:00:54.601Z,8.08
2016-12-09T04:05:51.026Z,7.98
2016-12-09T04:10:47.323Z,7.87
2016-12-09T04:15:43.907Z,7.95
2016-12-09T04:20:40.841Z,7.87
2016-12-09T04:25:37.422Z,8.00
2016-12-09T04:30:33.849Z,7.87
2016-12-09T04:35:31.772Z,7.85
2016-12-09T04:40:27.696Z,7.95
2016-12-09T04:45:24.528Z,7.93
2016-12-09T04:50:21.762Z,7.91
2016-12-09T04:55:19.129Z,7.98
2016-12-09T05:00:15.769Z,8.16
2016-12-09T05:05:12.894Z,8.09
2016-12-09T05:10:10.436Z,8.08
2016-12-09T05:15:06.610Z,8.12
2016-12-09T05:20:05.083Z,8.20
2016-12-09T05:25:01.257Z,8.13
2016-12-09T05:29:58.744Z,8.10
2016-12-09T05:34:57.906Z,8.20
2016-12-09T05:39:55.845Z,8.27
2016-12-09T05:44:51.865Z,8.30
2016-12-09T05:49:49.265Z,8.24
2016-12-09T05:54:50.253Z,8.28
2016-12-09T05:59:46.797Z,8.23
2016-12-09T06:04:44.416Z,8.38
2016-12-09T06:09:42.141Z,8.31
2016-12-09T06:14:39.524Z,8.36
2016-12-09T06:19:35.604Z,8.33
2016-12-09T06:24:33.274Z,8.48
2016-12-09T06:29:30.048Z,8.52
2016-12-09T06:34:26.897Z,8.58
2016-12-09T06:39:24.292Z,8.63
2016-12-09T06:44:21.492Z,8.60
2016-12-09T06:49:18.145Z,8.55
2016-12-09T06:54:15.128Z,8.53
2016-12-09T06:59:11.873Z,8.60
2016-12-09T07:04:08.269Z,8.56
2016-12-09T07:09:04.998Z,8.63
2016-12-09T07:14:01.622Z,8.70
2016-12-09T07:18:57.927Z,8.69
2016-12-09T07:23:54.432Z,8.67
2016-12-09T07:28:51.220Z,8.67
2016-12-09T07:33:47.916Z,8.71
2016-12-09T07:38:44.463Z,8.73
2016-12-09T07:43:41.905Z,8.69
2016-12-09T07:48:38.733Z,8.73
2016-12-09T07:53:35.223Z,8.74
2016-12-09T07:58:32.147Z,8.70
2016-12-09T08:03:28.583Z,8.74
2016-12-09T08:08:25.457Z,8.70
2016-12-09T08:13:22.054Z,8.85
2016-12-09T08:18:19.021Z,8.79
2016-12-09T08:23:15.683Z,8.82
2016-12-09T08:28:12.675Z,8.85
2016-12-09T08:33:09.502Z,8.85
2016-12-09T08:38:06.307Z,8.89
2016-12-09T08:43:03.163Z,8.89
2016-12-09T08:47:59.579Z,8.94
2016-12-09T08:52:56.281Z,9.10
2016-12-09T08:57:53.029Z,9.16
2016-12-09T09:02:49.229Z,9.22
2016-12-09T09:07:46.119Z,9.46
2016-12-09T09:12:42.907Z,9.47
2016-12-09T09:17:40.481Z,9.44
2016-12-09T09:22:36.660Z,9.39
2016-12-09T09:27:33.462Z,9.44
2016-12-09T09:32:30.350Z,9.47
2016-12-09T09:37:27.220Z,9.36
2016-12-09T09:42:23.589Z,9.44
2016-12-09T09:47:20.467Z,9.32
2016-12-09T09:52:18.063Z,9.34
2016-12-09T09:57:14.784Z,9.31
2016-12-09T10:02:11.699Z,9.48
2016-12-09T10:07:07.948Z,9.44
2016-12-09T10:12:05.380Z,9.50
2016-12-09T10:17:02.055Z,9.48
2016-12-09T10:21:58.561Z,9.41
2016-12-09T10:26:55.214Z,9.41
2016-12-09T10:31:51.848Z,9.54
2016-12-09T10:36:48.415Z,9.61
2016-12-09T10:41:44.941Z,9.56
2016-12-09T10:46:41.537Z,9.62
2016-12-09T10:51:38.359Z,9.73
2016-12-09T10:56:35.036Z,9.80
2016-12-09T11:01:31.385Z,9.80
2016-12-09T11:06:28.172Z,9.79
2016-12-09T11:11:24.941Z,9.83
2016-12-09T11:16:21.305Z,9.98
2016-12-09T11:21:17.855Z,9.92
2016-12-09T11:26:14.545Z,9.97
2016-12-09T11:31:11.630Z,9.95
2016-12-09T11:36:08.950Z,10.10
2016-12-09T11:41:07.631Z,10.20
2016-12-09T11:46:03.721Z,10.04
2016-12-09T11:51:01.487Z,10.04
2016-12-09T11:55:58.114Z,10.04
2016-12-09T12:00:55.906Z,9.98
2016-12-09T12:05:52.539Z,10.15
2016-12-09T12:10:49.233Z,10.26
2016-12-09T12:15:45.755Z,10.40
2016-12-09T12:20:43.740Z,10.31
2016-12-09T12:25:40.091Z,10.28
2016-12-09T12:30:36.779Z,10.25
2016-12-09T12:35:33.254Z,10.23
2016-12-09T12:40:29.930Z,10.28
2016-12-09T12:45:26.662Z,10.16
2016-12-09T12:50:23.043Z,10.16
2016-12-09T12:55:19.463Z,10.16
2016-12-09T13:00:15.898Z,10.09
2016-12-09T13:05:12.359Z,10.07
2016-12-09T13:10:08.719Z,10.09
2016-12-09T13:15:05.407Z,9.98
2016-12-09T13:20:02.091Z,9.94
2016-12-09T13:24:58.070Z,10.04
2016-12-09T13:29:54.682Z,10.04
2016-12-09T13:34:51.536Z,10.07
2016-12-09T13:39:48.059Z,10.07
2016-12-09T13:44:44.745Z,10.05
2016-12-09T13:49:41.128Z,10.10
2016-12-09T13:54:37.627Z,10.12
2016-12-09T13:59:34.444Z,10.23
2016-12-09T14:04:31.886Z,10.19
2016-12-09T14:09:28.424Z,10.25
2016-12-09T14:14:25.045Z,10.20
2016-12-09T14:19:21.462Z,10.09
2016-12-09T14:24:18.527Z,10.10
2016-12-09T14:29:15.669Z,9.97
2016-12-09T14:34:12.274Z,9.87
2016-12-09T14:39:08.549Z,9.92
2016-12-09T14:44:05.035Z,9.94
2016-12-09T14:49:01.445Z,9.98
2016-12-09T14:53:57.781Z,9.99
2016-12-09T14:58:54.361Z,9.95
2016-12-09T15:03:50.883Z,9.94
2016-12-09T15:08:47.711Z,9.97
2016-12-09T15:13:44.261Z,9.95
2016-12-09T15:18:40.803Z,9.86
2016-12-09T15:23:37.128Z,9.87
2016-12-09T15:28:34.104Z,9.97
2016-12-09T15:33:30.545Z,9.97
2016-12-09T15:38:26.820Z,9.95
2016-12-09T15:43:23.307Z,9.89
2016-12-09T15:48:19.821Z,9.84
2016-12-09T15:53:16.686Z,9.82
2016-12-09T15:58:13.636Z,9.82
2016-12-09T16:03:10.131Z,9.77
2016-12-09T16:08:06.636Z,9.82
2016-12-09T16:13:03.239Z,9.95
2016-12-09T16:17:59.637Z,10.04
2016-12-09T16:22:56.153Z,9.89
2016-12-09T16:27:52.713Z,9.89
2016-12-09T16:32:49.216Z,9.83
2016-12-09T16:37:45.538Z,9.98
2016-12-09T16:42:42.070Z,10.05
2016-12-09T16:47:38.789Z,10.16
2016-12-09T16:52:35.669Z,10.13
2016-12-09T16:57:33.000Z,10.04
2016-12-09T17:02:29.612Z,10.09
2016-12-09T17:07:26.379Z,10.09
2016-12-09T17:12:23.312Z,10.17
2016-12-09T17:17:19.800Z,10.09
2016-12-09T17:22:16.204Z,10.10
2016-12-09T17:27:12.853Z,10.09
2016-12-09T17:32:09.286Z,10.16
2016-12-09T17:37:06.922Z,10.07
2016-12-09T17:42:03.840Z,10.05
2016-12-09T17:47:00.284Z,10.01
2016-12-09T17:51:56.842Z,9.91
2016-12-09T17:56:52.992Z,9.87
2016-12-09T18:01:49.795Z,9.86
2016-12-09T18:06:48.169Z,9.98
2016-12-09T18:11:44.280Z,9.98
2016-12-09T18:16:41.154Z,10.04
2016-12-09T18:21:40.730Z,10.13
2016-12-09T18:26:36.743Z,10.19
2016-12-09T18:31:33.821Z,10.23
2016-12-09T18:36:30.286Z,10.15
2016-12-09T18:41:26.525Z,10.20
2016-12-09T18:46:23.103Z,10.19
2016-12-09T18:51:21.262Z,10.19
2016-12-09T18:56:17.725Z,10.02
2016-12-09T19:01:14.267Z,10.15
2016-12-09T19:06:10.669Z,10.09
2016-12-09T19:11:06.708Z,9.87
2016-12-09T19:16:03.262Z,10.01
2016-12-09T19:20:59.682Z,9.97
2016-12-09T19:25:56.183Z,9.91
2016-12-09T19:30:52.642Z,9.94
2016-12-09T19:35:49.163Z,9.87
2016-12-09T19:40:46.024Z,9.74
2016-12-09T19:45:42.547Z,9.77
2016-12-09T19:50:38.811Z,9.79
2016-12-09T19:55:34.848Z,9.64
2016-12-09T20:00:31.868Z,9.74
2016-12-09T20:05:28.300Z,9.72
2016-12-09T20:10:25.560Z,9.77
2016-12-09T20:15:22.064Z,9.64
2016-12-09T20:20:19.012Z,9.64
2016-12-09T20:25:15.489Z,9.59
2016-12-09T20:30:11.864Z,9.58
2016-12-09T20:35:08.350Z,9.40
2016-12-09T20:40:05.011Z,9.46
2016-12-09T20:45:02.834Z,9.43
2016-12-09T20:49:59.129Z,9.34
2016-12-09T20:54:55.542Z,9.23
2016-12-09T20:59:52.023Z,9.22
2016-12-09T21:04:48.511Z,9.18
2016-12-09T21:09:45.012Z,9.11
2016-12-09T21:14:41.521Z,9.03
2016-12-09T21:19:37.874Z,8.92
2016-12-09T21:24:34.339Z,8.85
2016-12-09T21:29:30.812Z,8.87
2016-12-09T21:34:27.484Z,8.89
2016-12-09T21:39:23.831Z,8.89
2016-12-09T21:44:20.595Z,8.92
2016-12-09T21:49:17.091Z,8.88
2016-12-09T21:54:13.534Z,8.91
2016-12-09T21:59:10.271Z,8.82
2016-12-09T22:04:07.368Z,8.87
2016-12-09T22:09:03.622Z,8.87
2016-12-09T22:14:00.549Z,8.95
2016-12-09T22:18:58.146Z,8.85
2016-12-09T22:23:54.489Z,8.87
2016-12-09T22:28:50.897Z,8.94
2016-12-09T22:33:47.530Z,8.82
2016-12-09T22:38:44.451Z,8.85
2016-12-09T22:43:40.730Z,8.79
2016-12-09T22:48:37.417Z,8.85
2016-12-09T22:53:34.527Z,8.82
2016-12-09T22:58:30.915Z,8.81
2016-12-09T23:03:27.260Z,8.81
2016-12-09T23:08:23.616Z,8.84
2016-12-09T23:18:19.973Z,8.81
2016-12-09T23:23:16.476Z,8.82
2016-12-09T23:28:13.853Z,8.92
2016-12-09T23:33:12.926Z,8.95
2016-12-09T23:38:08.903Z,8.92
2016-12-09T23:43:06.529Z,8.91
2016-12-09T23:48:02.716Z,8.87
2016-12-09T23:52:59.174Z,8.69
2016-12-09T23:57:55.957Z,8.89
